createdAt,value
2022-10-25T00:00:01.775Z,30.90
2022-10-25T00:02:42.335Z,30.89
2022-10-25T00:05:18.643Z,30.92
2022-10-25T00:07:49.761Z,30.90
2022-10-25T00:10:23.496Z,30.95
2022-10-25T00:12:56.662Z,30.92
2022-10-25T00:15:28.196Z,30.91
2022-10-25T00:17:59.200Z,30.92
2022-10-25T00:20:30.044Z,30.92
2022-10-25T00:23:00.908Z,30.89
2022-10-25T00:25:31.666Z,30.89
2022-10-25T00:28:02.467Z,30.92
2022-10-25T00:30:33.417Z,30.91
2022-10-25T00:33:04.217Z,30.91
2022-10-25T00:35:35.127Z,30.93
2022-10-25T00:38:06.062Z,30.92
2022-10-25T00:40:37.034Z,30.93
2022-10-25T00:43:07.856Z,30.91
2022-10-25T00:45:38.764Z,30.90
2022-10-25T00:48:14.281Z,30.93
2022-10-25T00:50:57.608Z,30.91
2022-10-25T00:53:40.104Z,30.88
2022-10-25T00:56:20.222Z,30.91
2022-10-25T00:58:56.283Z,30.93
2022-10-25T01:01:28.271Z,30.94
2022-10-25T01:04:02.855Z,30.90
2022-10-25T01:06:49.518Z,30.92
2022-10-25T01:09:33.474Z,30.95
2022-10-25T01:12:04.304Z,30.92
2022-10-25T01:14:44.376Z,30.93
2022-10-25T01:17:41.190Z,30.94
2022-10-25T01:20:42.015Z,30.94
2022-10-25T01:23:22.065Z,30.92
2022-10-25T01:25:59.312Z,30.98
2022-10-25T01:28:59.035Z,30.98
2022-10-25T01:32:07.691Z,31.01
2022-10-25T01:34:50.766Z,30.99
2022-10-25T01:37:39.015Z,30.99
2022-10-25T01:40:25.034Z,30.99
2022-10-25T01:43:17.145Z,31.01
2022-10-25T01:46:17.007Z,31.03
2022-10-25T01:48:51.887Z,31.05
2022-10-25T01:51:22.704Z,31.03
2022-10-25T01:53:54.895Z,31.03
2022-10-25T01:56:31.460Z,31.04
2022-10-25T01:59:54.991Z,31.06
2022-10-25T02:02:33.928Z,31.05
2022-10-25T02:05:30.031Z,31.06
2022-10-25T02:08:06.344Z,31.08
2022-10-25T02:10:40.010Z,31.08
2022-10-25T02:13:36.633Z,31.10
2022-10-25T02:16:28.377Z,31.10
2022-10-25T02:19:05.179Z,31.12
2022-10-25T02:21:39.245Z,31.10
2022-10-25T02:24:24.358Z,31.13
2022-10-25T02:26:57.419Z,31.11
2022-10-25T02:29:31.215Z,31.11
2022-10-25T02:32:02.523Z,31.12
2022-10-25T02:34:33.743Z,31.15
2022-10-25T02:37:04.240Z,31.14
2022-10-25T02:39:36.275Z,31.13
2022-10-25T02:42:08.392Z,31.17
2022-10-25T02:44:39.446Z,31.16
2022-10-25T02:47:10.297Z,31.14
2022-10-25T02:49:41.313Z,31.19
2022-10-25T02:52:12.242Z,31.17
2022-10-25T02:54:43.181Z,31.22
2022-10-25T02:57:14.052Z,31.22
2022-10-25T02:59:45.029Z,31.21
2022-10-25T03:02:15.940Z,31.21
2022-10-25T03:04:46.900Z,31.24
2022-10-25T03:07:17.976Z,31.22
2022-10-25T03:09:48.942Z,31.24
2022-10-25T03:12:19.766Z,31.22
2022-10-25T03:14:50.497Z,31.24
2022-10-25T03:17:21.306Z,31.26
2022-10-25T03:19:52.168Z,31.27
2022-10-25T03:22:23.199Z,31.27
2022-10-25T03:24:54.100Z,31.31
2022-10-25T03:27:25.321Z,31.26
2022-10-25T03:29:57.523Z,31.27
2022-10-25T03:32:28.387Z,31.33
2022-10-25T03:34:59.187Z,31.32
2022-10-25T03:37:30.157Z,31.32
2022-10-25T03:40:00.953Z,31.34
2022-10-25T03:42:31.930Z,31.33
2022-10-25T03:45:02.841Z,31.34
2022-10-25T03:47:33.654Z,31.34
2022-10-25T03:50:05.035Z,31.33
2022-10-25T03:52:35.386Z,31.38
2022-10-25T03:55:06.862Z,31.38
2022-10-25T03:57:38.013Z,31.39
2022-10-25T04:00:09.339Z,31.37
2022-10-25T04:02:43.267Z,31.41
2022-10-25T04:05:14.033Z,31.41
2022-10-25T04:07:45.428Z,31.40
2022-10-25T04:10:16.471Z,31.38
2022-10-25T04:12:47.586Z,31.41
2022-10-25T04:15:19.149Z,31.42
2022-10-25T04:17:54.059Z,31.40
2022-10-25T04:20:25.560Z,31.39
2022-10-25T04:22:58.399Z,31.39
2022-10-25T04:25:30.736Z,31.38
2022-10-25T04:28:03.089Z,31.38
2022-10-25T04:30:36.585Z,31.39
2022-10-25T04:33:10.054Z,31.38
2022-10-25T04:35:40.992Z,31.38
2022-10-25T04:38:11.701Z,31.41
2022-10-25T04:40:42.754Z,31.39
2022-10-25T04:43:13.410Z,31.40
2022-10-25T04:45:44.317Z,31.43
2022-10-25T04:48:15.307Z,31.41
2022-10-25T04:50:46.416Z,31.42
2022-10-25T04:53:17.202Z,31.43
2022-10-25T04:55:48.327Z,31.44
2022-10-25T04:58:19.084Z,31.41
2022-10-25T05:00:50.510Z,31.46
2022-10-25T05:03:21.502Z,31.44
2022-10-25T05:05:52.414Z,31.46
2022-10-25T05:08:23.241Z,31.47
2022-10-25T05:10:58.117Z,31.45
2022-10-25T05:13:28.945Z,31.44
2022-10-25T05:16:02.291Z,31.43
2022-10-25T05:18:35.132Z,31.46
2022-10-25T05:21:08.819Z,31.47
2022-10-25T05:23:39.820Z,31.53
2022-10-25T05:26:13.512Z,31.51
2022-10-25T05:28:46.872Z,31.48
2022-10-25T05:31:20.739Z,31.50
2022-10-25T05:33:57.122Z,31.53
2022-10-25T05:36:28.445Z,31.53
2022-10-25T05:38:59.284Z,31.56
2022-10-25T05:41:33.194Z,31.57
2022-10-25T05:44:07.803Z,31.54
2022-10-25T05:46:39.233Z,31.54
2022-10-25T05:49:09.690Z,31.54
2022-10-25T05:51:41.698Z,31.55
2022-10-25T05:54:17.306Z,31.53
2022-10-25T05:56:48.220Z,31.53
2022-10-25T05:59:19.177Z,31.55
2022-10-25T06:01:53.781Z,31.57
2022-10-25T06:04:38.199Z,31.55
2022-10-25T06:07:09.058Z,31.61
2022-10-25T06:09:39.788Z,31.58
2022-10-25T06:12:10.639Z,31.59
2022-10-25T06:14:43.235Z,31.58
2022-10-25T06:17:16.495Z,31.57
2022-10-25T06:19:47.402Z,31.58
2022-10-25T06:22:18.311Z,31.56
2022-10-25T06:24:49.231Z,31.58
2022-10-25T06:27:19.997Z,31.58
2022-10-25T06:29:51.092Z,31.59
2022-10-25T06:32:21.866Z,31.59
2022-10-25T06:34:52.895Z,31.59
2022-10-25T06:37:23.570Z,31.57
2022-10-25T06:39:54.561Z,31.59
2022-10-25T06:42:25.699Z,31.62
2022-10-25T06:44:56.361Z,31.62
2022-10-25T06:47:38.683Z,31.59
2022-10-25T06:50:10.692Z,31.62
2022-10-25T06:53:01.606Z,31.59
2022-10-25T06:55:32.441Z,31.62
2022-10-25T06:58:08.350Z,31.62
2022-10-25T07:00:39.326Z,31.65
2022-10-25T07:03:10.134Z,31.68
2022-10-25T07:06:01.729Z,31.62
2022-10-25T07:08:32.587Z,31.64
2022-10-25T07:11:03.901Z,31.62
2022-10-25T07:13:35.289Z,31.61
2022-10-25T07:16:07.802Z,31.61
2022-10-25T07:18:39.980Z,31.65
2022-10-25T07:21:14.511Z,31.63
2022-10-25T07:23:45.800Z,31.64
2022-10-25T07:26:19.750Z,31.65
2022-10-25T07:28:52.242Z,31.63
2022-10-25T07:31:26.447Z,31.63
2022-10-25T07:34:00.295Z,31.64
2022-10-25T07:36:31.698Z,31.65
2022-10-25T07:39:03.462Z,31.65
2022-10-25T07:41:34.324Z,31.67
2022-10-25T07:44:05.341Z,31.66
2022-10-25T07:46:36.054Z,31.67
2022-10-25T07:49:06.723Z,31.69
2022-10-25T07:51:37.506Z,31.70
2022-10-25T07:54:08.479Z,31.69
2022-10-25T07:56:39.411Z,31.68
2022-10-25T07:59:10.326Z,31.70
2022-10-25T08:01:41.394Z,31.69
2022-10-25T08:04:12.348Z,31.66
2022-10-25T08:06:43.519Z,31.67
2022-10-25T08:09:26.559Z,31.68
2022-10-25T08:12:04.595Z,31.68
2022-10-25T08:14:38.137Z,31.72
2022-10-25T08:17:11.796Z,31.68
2022-10-25T08:19:42.572Z,31.69
2022-10-25T08:22:13.410Z,31.68
2022-10-25T08:24:44.050Z,31.69
2022-10-25T08:27:14.975Z,31.73
2022-10-25T08:29:45.890Z,31.71
2022-10-25T08:32:17.191Z,31.71
2022-10-25T08:37:33.483Z,31.72
2022-10-25T08:40:04.397Z,31.74
2022-10-25T08:42:45.323Z,31.73
2022-10-25T08:45:48.489Z,31.71
2022-10-25T08:48:23.784Z,31.72
2022-10-25T08:50:59.275Z,31.72
2022-10-25T08:53:39.829Z,31.68
2022-10-25T08:56:17.945Z,31.68
2022-10-25T08:59:00.895Z,31.72
2022-10-25T09:01:50.333Z,31.72
2022-10-25T09:04:21.290Z,31.72
2022-10-25T09:07:22.910Z,31.71
2022-10-25T09:10:17.679Z,31.71
2022-10-25T09:12:56.120Z,31.70
2022-10-25T09:16:03.842Z,31.73
2022-10-25T09:18:50.982Z,31.73
2022-10-25T09:21:40.005Z,31.71
2022-10-25T09:24:36.337Z,31.74
2022-10-25T09:27:17.053Z,31.72
2022-10-25T09:30:07.343Z,31.73
2022-10-25T09:32:57.011Z,31.71
2022-10-25T09:35:48.428Z,31.73
2022-10-25T09:38:37.032Z,31.70
2022-10-25T09:41:29.944Z,31.69
2022-10-25T09:44:23.317Z,31.70
2022-10-25T09:47:24.086Z,31.70
2022-10-25T09:50:29.079Z,31.68
2022-10-25T09:53:18.900Z,31.70
2022-10-25T09:55:58.784Z,31.70
2022-10-25T09:58:33.163Z,31.70
2022-10-25T10:01:09.366Z,31.74
2022-10-25T10:03:40.584Z,31.74
2022-10-25T10:06:39.309Z,31.71
2022-10-25T10:09:15.166Z,31.72
2022-10-25T10:11:47.454Z,31.73
2022-10-25T10:14:33.264Z,31.71
2022-10-25T10:17:05.295Z,31.70
2022-10-25T10:19:36.264Z,31.70
2022-10-25T10:22:16.047Z,31.68
2022-10-25T10:24:52.170Z,31.67
2022-10-25T10:27:28.906Z,31.67
2022-10-25T10:30:03.669Z,31.67
2022-10-25T10:35:32.676Z,31.69
2022-10-25T10:38:32.726Z,31.68
2022-10-25T10:41:30.678Z,31.69
2022-10-25T10:44:15.954Z,31.73
2022-10-25T10:46:51.899Z,31.73
2022-10-25T10:49:22.635Z,31.75
2022-10-25T10:51:53.617Z,31.69
2022-10-25T10:54:33.460Z,31.70
2022-10-25T10:57:10.013Z,31.70
2022-10-25T10:59:59.289Z,31.72
2022-10-25T11:02:44.872Z,31.70
2022-10-25T11:05:32.963Z,31.69
2022-10-25T11:08:12.281Z,31.69
2022-10-25T11:10:43.603Z,31.70
2022-10-25T11:13:16.038Z,31.68
2022-10-25T11:16:05.016Z,31.70
2022-10-25T11:18:54.249Z,31.72
2022-10-25T11:21:33.758Z,31.77
2022-10-25T11:24:28.868Z,31.74
2022-10-25T11:27:21.287Z,31.76
2022-10-25T11:30:00.481Z,31.72
2022-10-25T11:32:47.581Z,31.73
2022-10-25T11:35:58.863Z,31.73
2022-10-25T11:38:48.062Z,31.67
2022-10-25T11:41:44.044Z,31.74
2022-10-25T11:44:35.676Z,31.76
2022-10-25T11:47:12.039Z,31.74
2022-10-25T11:50:01.617Z,31.74
2022-10-25T11:53:23.237Z,31.72
2022-10-25T11:56:03.848Z,31.72
2022-10-25T11:59:04.617Z,31.74
2022-10-25T12:02:05.183Z,31.73
2022-10-25T12:04:44.452Z,31.76
2022-10-25T12:07:33.561Z,31.76
2022-10-25T12:10:31.175Z,31.73
2022-10-25T12:13:14.804Z,31.74
2022-10-25T12:15:51.566Z,31.76
2022-10-25T12:18:29.369Z,31.75
2022-10-25T12:21:01.661Z,31.70
2022-10-25T12:23:47.210Z,31.70
2022-10-25T12:26:36.106Z,31.73
2022-10-25T12:29:10.186Z,31.72
2022-10-25T12:31:46.308Z,31.72
2022-10-25T12:34:46.683Z,31.72
2022-10-25T12:37:40.951Z,31.71
2022-10-25T12:40:19.999Z,31.72
2022-10-25T12:43:10.539Z,31.69
2022-10-25T12:46:01.934Z,31.69
2022-10-25T12:48:50.911Z,31.71
2022-10-25T12:51:30.748Z,31.68
2022-10-25T12:54:35.937Z,31.71
2022-10-25T12:57:27.503Z,31.69
2022-10-25T13:00:23.868Z,31.71
2022-10-25T13:03:22.708Z,31.69
2022-10-25T13:06:19.313Z,31.68
2022-10-25T13:08:50.648Z,31.69
2022-10-25T13:11:21.716Z,31.68
2022-10-25T13:13:58.885Z,31.68
2022-10-25T13:16:33.168Z,31.70
2022-10-25T13:22:57.181Z,31.65
2022-10-25T13:25:33.962Z,31.91
2022-10-25T13:28:20.048Z,31.86
2022-10-25T13:30:50.968Z,31.80
2022-10-25T13:33:23.790Z,31.84
2022-10-25T13:35:54.601Z,31.88
2022-10-25T13:38:33.281Z,31.80
2022-10-25T13:41:13.719Z,31.94
2022-10-25T13:44:07.981Z,31.94
2022-10-25T13:46:42.538Z,31.89
2022-10-25T13:49:34.490Z,31.81
2022-10-25T13:52:09.397Z,31.83
2022-10-25T13:54:53.279Z,31.69
2022-10-25T13:57:49.154Z,31.68
2022-10-25T14:00:37.469Z,31.66
2022-10-25T14:03:17.040Z,31.54
2022-10-25T14:06:18.452Z,31.57
2022-10-25T14:08:48.987Z,31.61
2022-10-25T14:11:26.355Z,31.62
2022-10-25T14:14:15.427Z,31.61
2022-10-25T14:17:23.206Z,31.62
2022-10-25T14:20:00.635Z,31.63
2022-10-25T14:22:57.087Z,31.62
2022-10-25T14:25:43.658Z,31.62
2022-10-25T14:28:20.304Z,31.63
2022-10-25T14:30:53.224Z,31.59
2022-10-25T14:33:36.766Z,31.67
2022-10-25T14:36:13.301Z,31.69
2022-10-25T14:38:57.057Z,31.69
2022-10-25T14:41:33.628Z,31.70
2022-10-25T14:44:05.367Z,31.74
2022-10-25T14:46:36.712Z,31.75
2022-10-25T14:49:12.516Z,31.76
2022-10-25T14:51:46.249Z,31.79
2022-10-25T14:54:38.835Z,31.73
2022-10-25T14:57:13.293Z,31.75
2022-10-25T14:59:51.117Z,31.80
2022-10-25T15:02:31.247Z,31.97
2022-10-25T15:05:04.039Z,31.97
2022-10-25T15:07:45.407Z,31.94
2022-10-25T15:10:37.666Z,31.89
2022-10-25T15:13:38.743Z,31.87
2022-10-25T15:16:35.544Z,31.89
2022-10-25T15:19:15.402Z,31.87
2022-10-25T15:21:54.311Z,31.79
2022-10-25T15:24:28.006Z,31.84
2022-10-25T15:27:03.494Z,31.86
2022-10-25T15:32:30.172Z,31.82
2022-10-25T15:35:05.387Z,31.80
2022-10-25T15:37:36.227Z,31.77
2022-10-25T15:40:19.192Z,31.80
2022-10-25T15:42:50.179Z,31.82
2022-10-25T15:45:21.206Z,31.67
2022-10-25T15:47:52.843Z,31.64
2022-10-25T15:50:25.400Z,31.65
2022-10-25T15:52:56.686Z,31.65
2022-10-25T15:55:30.079Z,31.64
2022-10-25T15:58:00.940Z,31.65
2022-10-25T16:00:33.784Z,31.66
2022-10-25T16:03:04.886Z,31.67
2022-10-25T16:05:37.294Z,31.68
2022-10-25T16:08:10.666Z,31.68
2022-10-25T16:10:42.477Z,31.68
2022-10-25T16:13:18.728Z,31.70
2022-10-25T16:15:49.581Z,31.71
2022-10-25T16:18:20.898Z,31.71
2022-10-25T16:20:52.005Z,31.68
2022-10-25T16:23:26.478Z,31.68
2022-10-25T16:25:59.052Z,31.68
2022-10-25T16:28:29.942Z,31.68
2022-10-25T16:31:00.669Z,31.68
2022-10-25T16:33:31.573Z,31.69
2022-10-25T16:36:02.416Z,31.67
2022-10-25T16:38:33.337Z,31.66
2022-10-25T16:41:04.190Z,31.68
2022-10-25T16:43:35.139Z,31.66
2022-10-25T16:46:05.865Z,31.67
2022-10-25T16:48:38.916Z,31.70
2022-10-25T16:51:09.741Z,31.67
2022-10-25T16:53:40.648Z,31.66
2022-10-25T16:56:14.068Z,31.68
2022-10-25T16:58:45.960Z,31.65
2022-10-25T17:01:44.582Z,31.67
2022-10-25T17:04:17.740Z,31.65
2022-10-25T17:06:48.645Z,31.65
2022-10-25T17:09:20.579Z,31.65
2022-10-25T17:11:51.348Z,31.65
2022-10-25T17:14:22.071Z,31.64
2022-10-25T17:16:53.003Z,31.61
2022-10-25T17:19:23.778Z,31.63
2022-10-25T17:21:54.685Z,31.62
2022-10-25T17:24:26.560Z,31.63
2022-10-25T17:26:57.574Z,31.61
2022-10-25T17:29:28.701Z,31.59
2022-10-25T17:31:59.597Z,31.59
2022-10-25T17:34:30.428Z,31.60
2022-10-25T17:37:02.872Z,31.61
2022-10-25T17:39:33.633Z,31.59
2022-10-25T17:42:04.949Z,31.59
2022-10-25T17:44:35.396Z,31.59
2022-10-25T17:47:06.429Z,31.58
2022-10-25T17:49:37.079Z,31.57
2022-10-25T17:52:09.435Z,31.57
2022-10-25T17:54:41.505Z,31.55
2022-10-25T17:57:12.428Z,31.57
2022-10-25T17:59:43.253Z,31.53
2022-10-25T18:02:16.402Z,31.55
2022-10-25T18:05:02.303Z,31.53
2022-10-25T18:07:40.318Z,31.54
2022-10-25T18:10:11.651Z,31.53
2022-10-25T18:12:42.013Z,31.52
2022-10-25T18:15:13.297Z,31.53
2022-10-25T18:17:44.813Z,31.51
2022-10-25T18:20:16.223Z,31.52
2022-10-25T18:22:47.784Z,31.51
2022-10-25T18:25:18.769Z,31.50
2022-10-25T18:27:49.907Z,31.53
2022-10-25T18:30:21.103Z,31.52
2022-10-25T18:32:52.133Z,31.49
2022-10-25T18:35:24.022Z,31.50
2022-10-25T18:37:54.950Z,31.49
2022-10-25T18:40:25.863Z,31.50
2022-10-25T18:42:56.709Z,31.45
2022-10-25T18:45:27.825Z,31.46
2022-10-25T18:47:58.475Z,31.47
2022-10-25T18:50:29.432Z,31.45
2022-10-25T18:53:00.650Z,31.47
2022-10-25T18:55:56.386Z,31.46
2022-10-25T18:58:27.455Z,31.42
2022-10-25T19:00:58.263Z,31.43
2022-10-25T19:03:29.160Z,31.44
2022-10-25T19:06:00.142Z,31.45
2022-10-25T19:08:30.946Z,31.46
2022-10-25T19:11:05.404Z,31.43
2022-10-25T19:13:37.390Z,31.44
2022-10-25T19:16:09.593Z,31.39
2022-10-25T19:18:40.802Z,31.44
2022-10-25T19:21:29.740Z,31.44
2022-10-25T19:24:00.581Z,31.44
2022-10-25T19:26:31.419Z,31.44
2022-10-25T19:29:03.864Z,31.47
2022-10-25T19:31:34.792Z,31.44
2022-10-25T19:34:06.092Z,31.43
2022-10-25T19:36:54.866Z,31.44
2022-10-25T19:39:25.722Z,31.41
2022-10-25T19:41:56.567Z,31.44
2022-10-25T19:44:27.463Z,31.44
2022-10-25T19:47:00.266Z,31.42
2022-10-25T19:49:31.223Z,31.43
2022-10-25T19:52:02.081Z,31.41
2022-10-25T19:54:32.929Z,31.42
2022-10-25T19:57:04.908Z,31.41
2022-10-25T19:59:36.599Z,31.41
2022-10-25T20:02:07.612Z,31.41
2022-10-25T20:04:38.837Z,31.41
2022-10-25T20:07:09.898Z,31.42
2022-10-25T20:09:40.822Z,31.44
2022-10-25T20:12:11.825Z,31.40
2022-10-25T20:14:42.932Z,31.40
2022-10-25T20:17:15.200Z,31.41
2022-10-25T20:19:45.982Z,31.40
2022-10-25T20:22:16.924Z,31.39
2022-10-25T20:24:47.700Z,31.40
2022-10-25T20:27:18.484Z,31.39
2022-10-25T20:29:49.479Z,31.40
2022-10-25T20:32:20.469Z,31.39
2022-10-25T20:34:51.429Z,31.37
2022-10-25T20:37:22.382Z,31.37
2022-10-25T20:39:53.245Z,31.38
2022-10-25T20:42:24.313Z,31.37
2022-10-25T20:44:55.499Z,31.37
2022-10-25T20:47:26.053Z,31.38
2022-10-25T20:49:56.823Z,31.38
2022-10-25T20:52:27.773Z,31.37
2022-10-25T20:54:58.653Z,31.37
2022-10-25T20:57:29.622Z,31.36
2022-10-25T21:00:00.495Z,31.37
2022-10-25T21:02:31.436Z,31.34
2022-10-25T21:05:02.268Z,31.34
2022-10-25T21:07:34.435Z,31.32
2022-10-25T21:10:05.207Z,31.29
2022-10-25T21:12:36.256Z,31.33
2022-10-25T21:15:11.002Z,31.32
2022-10-25T21:17:43.083Z,31.29
2022-10-25T21:20:14.235Z,31.32
2022-10-25T21:22:45.202Z,31.33
2022-10-25T21:25:16.149Z,31.34
2022-10-25T21:27:47.518Z,31.34
2022-10-25T21:30:17.967Z,31.34
2022-10-25T21:32:48.866Z,31.32
2022-10-25T21:35:20.540Z,31.33
2022-10-25T21:38:09.063Z,31.31
2022-10-25T21:40:39.970Z,31.31
2022-10-25T21:43:10.922Z,31.35
2022-10-25T21:45:44.823Z,31.32
2022-10-25T21:48:15.642Z,31.31
2022-10-25T21:50:46.572Z,31.28
2022-10-25T21:53:17.576Z,31.29
2022-10-25T21:55:48.307Z,31.31
2022-10-25T21:58:19.214Z,31.28
2022-10-25T22:00:50.123Z,31.27
2022-10-25T22:03:23.053Z,31.27
2022-10-25T22:05:56.392Z,31.23
2022-10-25T22:08:27.571Z,31.26
2022-10-25T22:13:31.024Z,31.29
2022-10-25T22:16:05.594Z,31.24
2022-10-25T22:19:18.728Z,31.26
2022-10-25T22:21:51.718Z,31.29
2022-10-25T22:24:22.684Z,31.30
2022-10-25T22:26:54.206Z,31.27
2022-10-25T22:29:25.227Z,31.29
2022-10-25T22:31:56.162Z,31.29
2022-10-25T22:34:27.124Z,31.28
2022-10-25T22:36:58.042Z,31.27
2022-10-25T22:39:28.959Z,31.27
2022-10-25T22:41:59.713Z,31.23
2022-10-25T22:44:30.616Z,31.21
2022-10-25T22:47:01.509Z,31.24
2022-10-25T22:49:32.325Z,31.25
2022-10-25T22:54:42.893Z,31.23
2022-10-25T22:57:13.909Z,31.17
2022-10-25T22:59:44.957Z,31.13
2022-10-25T23:02:15.797Z,31.09
2022-10-25T23:04:46.818Z,31.04
2022-10-25T23:07:17.845Z,31.03
2022-10-25T23:09:48.610Z,30.99
2022-10-25T23:12:19.434Z,30.97
2022-10-25T23:14:50.325Z,31.03
2022-10-25T23:17:21.301Z,31.04
2022-10-25T23:19:52.092Z,31.10
2022-10-25T23:22:22.986Z,31.09
2022-10-25T23:24:53.774Z,31.08
2022-10-25T23:27:24.386Z,31.10
2022-10-25T23:29:55.232Z,31.08
2022-10-25T23:32:26.053Z,31.09
2022-10-25T23:34:57.203Z,31.06
2022-10-25T23:37:28.080Z,31.06
2022-10-25T23:39:59.264Z,31.08
2022-10-25T23:42:30.083Z,31.09
2022-10-25T23:45:00.836Z,31.09
2022-10-25T23:47:31.637Z,31.07
2022-10-25T23:50:02.823Z,31.11
2022-10-25T23:52:33.705Z,31.10
2022-10-25T23:55:04.765Z,31.05
2022-10-25T23:57:35.528Z,31.05
